sensor_id;sensor_type;location;lat;lon;timestamp;pressure;altitude;pressure_sealevel;temperature
76901;BMP280;65859;43.020;25.096;2023-02-23T00:01:41;99226.38;;;4.46
76901;BMP280;65859;43.020;25.096;2023-02-23T00:04:08;99226.75;;;4.87
76901;BMP280;65859;43.020;25.096;2023-02-23T00:06:35;99226.47;;;4.65
76901;BMP280;65859;43.020;25.096;2023-02-23T00:09:03;99223.06;;;4.64
76901;BMP280;65859;43.020;25.096;2023-02-23T00:11:40;99229.09;;;4.36
76901;BMP280;65859;43.020;25.096;2023-02-23T00:14:07;99229.94;;;4.31
76901;BMP280;65859;43.020;25.096;2023-02-23T00:16:33;99232.91;;;4.48
76901;BMP280;65859;43.020;25.096;2023-02-23T00:18:59;99230.41;;;5.34
76901;BMP280;65859;43.020;25.096;2023-02-23T00:21:29;99226.63;;;5.40
76901;BMP280;65859;43.020;25.096;2023-02-23T00:24:09;99227.03;;;5.66
76901;BMP280;65859;43.020;25.096;2023-02-23T00:26:37;99239.31;;;5.57
76901;BMP280;65859;43.020;25.096;2023-02-23T00:29:15;99236.78;;;5.28
76901;BMP280;65859;43.020;25.096;2023-02-23T00:31:44;99240.38;;;5.37
76901;BMP280;65859;43.020;25.096;2023-02-23T00:34:12;99234.09;;;4.61
76901;BMP280;65859;43.020;25.096;2023-02-23T00:36:39;99234.69;;;5.06
76901;BMP280;65859;43.020;25.096;2023-02-23T00:39:09;99228.69;;;5.43
76901;BMP280;65859;43.020;25.096;2023-02-23T00:41:43;99232.47;;;5.37
76901;BMP280;65859;43.020;25.096;2023-02-23T00:44:10;99229.72;;;4.57
76901;BMP280;65859;43.020;25.096;2023-02-23T00:46:36;99227.19;;;4.41
76901;BMP280;65859;43.020;25.096;2023-02-23T00:49:03;99228.13;;;5.28
76901;BMP280;65859;43.020;25.096;2023-02-23T00:51:31;99223.59;;;5.52
76901;BMP280;65859;43.020;25.096;2023-02-23T00:53:59;99228.13;;;6.17
76901;BMP280;65859;43.020;25.096;2023-02-23T00:56:25;99229.75;;;6.13
76901;BMP280;65859;43.020;25.096;2023-02-23T00:58:52;99230.34;;;6.10
76901;BMP280;65859;43.020;25.096;2023-02-23T01:01:19;99225.75;;;4.83
76901;BMP280;65859;43.020;25.096;2023-02-23T01:03:49;99224.22;;;4.24
76901;BMP280;65859;43.020;25.096;2023-02-23T01:06:16;99225.59;;;4.16
76901;BMP280;65859;43.020;25.096;2023-02-23T01:08:46;99221.97;;;4.07
76901;BMP280;65859;43.020;25.096;2023-02-23T01:11:18;99219.09;;;4.04
76901;BMP280;65859;43.020;25.096;2023-02-23T01:13:47;99221.50;;;3.61
76901;BMP280;65859;43.020;25.096;2023-02-23T01:16:18;99223.16;;;3.47
76901;BMP280;65859;43.020;25.096;2023-02-23T01:18:45;99223.16;;;3.47
76901;BMP280;65859;43.020;25.096;2023-02-23T01:23:43;99219.91;;;3.65
76901;BMP280;65859;43.020;25.096;2023-02-23T01:26:22;99217.03;;;3.61
76901;BMP280;65859;43.020;25.096;2023-02-23T01:28:53;99218.31;;;3.64
76901;BMP280;65859;43.020;25.096;2023-02-23T01:31:23;99220.97;;;3.59
76901;BMP280;65859;43.020;25.096;2023-02-23T01:33:54;99216.75;;;3.63
76901;BMP280;65859;43.020;25.096;2023-02-23T01:36:21;99224.84;;;4.11
76901;BMP280;65859;43.020;25.096;2023-02-23T01:38:48;99225.06;;;4.14
76901;BMP280;65859;43.020;25.096;2023-02-23T01:41:15;99218.69;;;3.86
76901;BMP280;65859;43.020;25.096;2023-02-23T01:46:40;99218.41;;;3.49
76901;BMP280;65859;43.020;25.096;2023-02-23T01:49:14;99219.66;;;3.61
76901;BMP280;65859;43.020;25.096;2023-02-23T01:51:44;99223.16;;;3.47
76901;BMP280;65859;43.020;25.096;2023-02-23T01:54:30;99214.25;;;3.48
76901;BMP280;65859;43.020;25.096;2023-02-23T01:56:59;99222.25;;;3.17
76901;BMP280;65859;43.020;25.096;2023-02-23T01:59:34;99220.41;;;3.67
76901;BMP280;65859;43.020;25.096;2023-02-23T02:02:03;99225.53;;;3.87
76901;BMP280;65859;43.020;25.096;2023-02-23T02:04:34;99220.25;;;3.92
76901;BMP280;65859;43.020;25.096;2023-02-23T02:07:25;99217.28;;;3.60
76901;BMP280;65859;43.020;25.096;2023-02-23T02:09:55;99225.03;;;3.36
76901;BMP280;65859;43.020;25.096;2023-02-23T02:12:51;99229.50;;;3.30
76901;BMP280;65859;43.020;25.096;2023-02-23T02:15:20;99226.50;;;2.92
76901;BMP280;65859;43.020;25.096;2023-02-23T02:18:22;99225.53;;;2.63
76901;BMP280;65859;43.020;25.096;2023-02-23T02:21:43;99233.78;;;3.01
76901;BMP280;65859;43.020;25.096;2023-02-23T02:24:03;99237.69;;;3.18
76901;BMP280;65859;43.020;25.096;2023-02-23T02:27:32;99233.28;;;3.63
76901;BMP280;65859;43.020;25.096;2023-02-23T02:35:27;99232.53;;;2.83
76901;BMP280;65859;43.020;25.096;2023-02-23T02:44:16;99236.50;;;2.70
76901;BMP280;65859;43.020;25.096;2023-02-23T02:46:47;99228.59;;;2.85
76901;BMP280;65859;43.020;25.096;2023-02-23T02:49:21;99232.59;;;2.62
76901;BMP280;65859;43.020;25.096;2023-02-23T02:51:53;99235.22;;;2.52
76901;BMP280;65859;43.020;25.096;2023-02-23T02:56:52;99230.97;;;2.82
76901;BMP280;65859;43.020;25.096;2023-02-23T02:59:23;99229.50;;;3.35
76901;BMP280;65859;43.020;25.096;2023-02-23T03:02:16;99226.50;;;3.52
76901;BMP280;65859;43.020;25.096;2023-02-23T03:05:02;99233.75;;;3.76
76901;BMP280;65859;43.020;25.096;2023-02-23T03:07:59;99234.53;;;3.76
76901;BMP280;65859;43.020;25.096;2023-02-23T03:11:10;99245.47;;;3.34
76901;BMP280;65859;43.020;25.096;2023-02-23T03:14:24;99248.34;;;3.37
76901;BMP280;65859;43.020;25.096;2023-02-23T03:26:38;99249.84;;;2.53
76901;BMP280;65859;43.020;25.096;2023-02-23T03:32:50;99259.03;;;2.25
76901;BMP280;65859;43.020;25.096;2023-02-23T03:39:26;99260.09;;;2.29
76901;BMP280;65859;43.020;25.096;2023-02-23T03:42:17;99267.66;;;2.10
76901;BMP280;65859;43.020;25.096;2023-02-23T03:45:10;99255.88;;;2.23
76901;BMP280;65859;43.020;25.096;2023-02-23T03:47:58;99256.59;;;1.98
76901;BMP280;65859;43.020;25.096;2023-02-23T03:50:50;99260.84;;;2.50
76901;BMP280;65859;43.020;25.096;2023-02-23T03:56:28;99259.75;;;1.85
76901;BMP280;65859;43.020;25.096;2023-02-23T03:59:17;99269.19;;;2.01
76901;BMP280;65859;43.020;25.096;2023-02-23T04:02:06;99272.91;;;2.26
76901;BMP280;65859;43.020;25.096;2023-02-23T04:04:54;99264.00;;;2.52
76901;BMP280;65859;43.020;25.096;2023-02-23T04:07:41;99262.66;;;2.04
76901;BMP280;65859;43.020;25.096;2023-02-23T04:10:28;99265.69;;;1.65
76901;BMP280;65859;43.020;25.096;2023-02-23T04:13:18;99269.97;;;1.91
76901;BMP280;65859;43.020;25.096;2023-02-23T04:15:57;99271.31;;;2.91
76901;BMP280;65859;43.020;25.096;2023-02-23T04:18:30;99264.53;;;2.49
76901;BMP280;65859;43.020;25.096;2023-02-23T04:20:58;99261.41;;;2.47
76901;BMP280;65859;43.020;25.096;2023-02-23T04:23:25;99272.34;;;2.03
76901;BMP280;65859;43.020;25.096;2023-02-23T04:25:52;99266.03;;;1.94
76901;BMP280;65859;43.020;25.096;2023-02-23T04:28:20;99270.47;;;1.83
76901;BMP280;65859;43.020;25.096;2023-02-23T04:30:47;99265.47;;;1.77
76901;BMP280;65859;43.020;25.096;2023-02-23T04:33:13;99268.66;;;2.04
76901;BMP280;65859;43.020;25.096;2023-02-23T04:35:40;99272.63;;;2.17
76901;BMP280;65859;43.020;25.096;2023-02-23T04:38:06;99281.03;;;2.29
76901;BMP280;65859;43.020;25.096;2023-02-23T04:40:33;99280.50;;;2.22
76901;BMP280;65859;43.020;25.096;2023-02-23T04:43:00;99282.56;;;2.15
76901;BMP280;65859;43.020;25.096;2023-02-23T04:45:27;99278.38;;;2.14
76901;BMP280;65859;43.020;25.096;2023-02-23T04:47:56;99284.31;;;1.94
76901;BMP280;65859;43.020;25.096;2023-02-23T04:50:23;99283.91;;;2.17
76901;BMP280;65859;43.020;25.096;2023-02-23T04:52:49;99284.59;;;1.98
76901;BMP280;65859;43.020;25.096;2023-02-23T04:55:20;99290.16;;;2.11
76901;BMP280;65859;43.020;25.096;2023-02-23T04:57:47;99287.31;;;2.49
76901;BMP280;65859;43.020;25.096;2023-02-23T05:00:15;99287.25;;;3.05
76901;BMP280;65859;43.020;25.096;2023-02-23T05:02:41;99296.94;;;3.04
76901;BMP280;65859;43.020;25.096;2023-02-23T05:05:08;99298.56;;;2.95
76901;BMP280;65859;43.020;25.096;2023-02-23T05:07:35;99295.69;;;2.91
76901;BMP280;65859;43.020;25.096;2023-02-23T05:10:03;99298.25;;;3.02
76901;BMP280;65859;43.020;25.096;2023-02-23T05:12:30;99301.69;;;2.71
76901;BMP280;65859;43.020;25.096;2023-02-23T05:14:57;99296.16;;;2.12
76901;BMP280;65859;43.020;25.096;2023-02-23T05:17:24;99305.38;;;2.30
76901;BMP280;65859;43.020;25.096;2023-02-23T05:19:51;99304.03;;;2.99
76901;BMP280;65859;43.020;25.096;2023-02-23T05:22:18;99306.25;;;3.51
76901;BMP280;65859;43.020;25.096;2023-02-23T05:24:44;99314.56;;;2.63
76901;BMP280;65859;43.020;25.096;2023-02-23T05:27:11;99319.97;;;2.10
76901;BMP280;65859;43.020;25.096;2023-02-23T05:29:41;99318.81;;;1.76
76901;BMP280;65859;43.020;25.096;2023-02-23T05:32:07;99322.28;;;1.91
76901;BMP280;65859;43.020;25.096;2023-02-23T05:34:33;99326.53;;;2.18
76901;BMP280;65859;43.020;25.096;2023-02-23T05:37:00;99337.03;;;2.28
76901;BMP280;65859;43.020;25.096;2023-02-23T05:39:26;99337.56;;;2.45
76901;BMP280;65859;43.020;25.096;2023-02-23T05:41:53;99339.94;;;2.47
76901;BMP280;65859;43.020;25.096;2023-02-23T05:44:20;99333.28;;;2.04
76901;BMP280;65859;43.020;25.096;2023-02-23T05:46:47;99346.31;;;1.93
76901;BMP280;65859;43.020;25.096;2023-02-23T05:49:14;99351.19;;;2.48
76901;BMP280;65859;43.020;25.096;2023-02-23T05:51:40;99353.28;;;2.96
76901;BMP280;65859;43.020;25.096;2023-02-23T05:54:07;99361.75;;;3.84
76901;BMP280;65859;43.020;25.096;2023-02-23T05:56:34;99360.84;;;3.44
76901;BMP280;65859;43.020;25.096;2023-02-23T05:59:01;99360.59;;;3.30
76901;BMP280;65859;43.020;25.096;2023-02-23T06:01:30;99374.16;;;3.53
76901;BMP280;65859;43.020;25.096;2023-02-23T06:03:56;99374.28;;;2.81
76901;BMP280;65859;43.020;25.096;2023-02-23T06:06:23;99375.31;;;2.80
76901;BMP280;65859;43.020;25.096;2023-02-23T06:08:51;99377.66;;;2.71
76901;BMP280;65859;43.020;25.096;2023-02-23T06:11:18;99380.31;;;2.92
76901;BMP280;65859;43.020;25.096;2023-02-23T06:13:45;99384.47;;;2.83
76901;BMP280;65859;43.020;25.096;2023-02-23T06:16:11;99378.00;;;3.86
76901;BMP280;65859;43.020;25.096;2023-02-23T06:18:37;99385.63;;;3.87
76901;BMP280;65859;43.020;25.096;2023-02-23T06:21:05;99392.06;;;3.25
76901;BMP280;65859;43.020;25.096;2023-02-23T06:23:32;99391.50;;;3.49
76901;BMP280;65859;43.020;25.096;2023-02-23T06:25:59;99398.09;;;3.46
76901;BMP280;65859;43.020;25.096;2023-02-23T06:28:26;99391.78;;;4.12
76901;BMP280;65859;43.020;25.096;2023-02-23T06:30:54;99396.97;;;3.73
76901;BMP280;65859;43.020;25.096;2023-02-23T06:33:20;99391.78;;;4.17
76901;BMP280;65859;43.020;25.096;2023-02-23T06:35:47;99390.19;;;4.94
76901;BMP280;65859;43.020;25.096;2023-02-23T06:38:14;99407.06;;;4.54
76901;BMP280;65859;43.020;25.096;2023-02-23T06:40:40;99412.34;;;5.65
76901;BMP280;65859;43.020;25.096;2023-02-23T06:43:07;99408.91;;;5.17
76901;BMP280;65859;43.020;25.096;2023-02-23T06:45:33;99414.72;;;5.43
76901;BMP280;65859;43.020;25.096;2023-02-23T06:48:00;99411.78;;;6.49
76901;BMP280;65859;43.020;25.096;2023-02-23T06:50:28;99413.59;;;7.00
76901;BMP280;65859;43.020;25.096;2023-02-23T06:52:55;99413.00;;;5.57
76901;BMP280;65859;43.020;25.096;2023-02-23T06:55:23;99406.81;;;5.14
76901;BMP280;65859;43.020;25.096;2023-02-23T06:57:50;99404.09;;;5.53
76901;BMP280;65859;43.020;25.096;2023-02-23T07:00:18;99397.31;;;5.23
76901;BMP280;65859;43.020;25.096;2023-02-23T07:02:45;99402.69;;;5.61
76901;BMP280;65859;43.020;25.096;2023-02-23T07:05:12;99409.22;;;6.25
76901;BMP280;65859;43.020;25.096;2023-02-23T07:07:38;99404.66;;;7.70
76901;BMP280;65859;43.020;25.096;2023-02-23T07:10:08;99407.53;;;8.54
76901;BMP280;65859;43.020;25.096;2023-02-23T07:12:34;99404.13;;;6.99
76901;BMP280;65859;43.020;25.096;2023-02-23T07:15:01;99404.63;;;6.68
76901;BMP280;65859;43.020;25.096;2023-02-23T07:17:27;99404.75;;;7.23
76901;BMP280;65859;43.020;25.096;2023-02-23T07:19:54;99406.69;;;7.73
76901;BMP280;65859;43.020;25.096;2023-02-23T07:22:20;99412.78;;;8.09
76901;BMP280;65859;43.020;25.096;2023-02-23T07:24:47;99408.75;;;8.12
76901;BMP280;65859;43.020;25.096;2023-02-23T07:27:13;99411.47;;;7.84
76901;BMP280;65859;43.020;25.096;2023-02-23T07:29:40;99405.69;;;7.00
76901;BMP280;65859;43.020;25.096;2023-02-23T07:32:06;99410.31;;;7.63
76901;BMP280;65859;43.020;25.096;2023-02-23T07:34:32;99413.78;;;8.36
76901;BMP280;65859;43.020;25.096;2023-02-23T07:36:59;99415.00;;;8.38
76901;BMP280;65859;43.020;25.096;2023-02-23T07:39:25;99408.44;;;10.56
76901;BMP280;65859;43.020;25.096;2023-02-23T07:41:52;99407.38;;;9.79
76901;BMP280;65859;43.020;25.096;2023-02-23T07:44:18;99413.38;;;11.13
76901;BMP280;65859;43.020;25.096;2023-02-23T07:46:45;99409.56;;;10.84
76901;BMP280;65859;43.020;25.096;2023-02-23T07:49:12;99408.88;;;11.34
76901;BMP280;65859;43.020;25.096;2023-02-23T07:51:39;99409.31;;;10.68
76901;BMP280;65859;43.020;25.096;2023-02-23T07:54:06;99404.53;;;11.59
76901;BMP280;65859;43.020;25.096;2023-02-23T07:56:33;99417.13;;;12.04
76901;BMP280;65859;43.020;25.096;2023-02-23T07:59:00;99402.16;;;10.98
76901;BMP280;65859;43.020;25.096;2023-02-23T08:01:26;99397.72;;;11.20
76901;BMP280;65859;43.020;25.096;2023-02-23T08:03:53;99405.31;;;10.92
76901;BMP280;65859;43.020;25.096;2023-02-23T08:06:20;99408.69;;;13.17
76901;BMP280;65859;43.020;25.096;2023-02-23T08:08:46;99401.69;;;13.93
76901;BMP280;65859;43.020;25.096;2023-02-23T08:11:12;99401.16;;;14.94
76901;BMP280;65859;43.020;25.096;2023-02-23T08:13:39;99400.91;;;14.67
76901;BMP280;65859;43.020;25.096;2023-02-23T08:16:05;99403.97;;;15.01
76901;BMP280;65859;43.020;25.096;2023-02-23T08:18:32;99398.53;;;15.52
76901;BMP280;65859;43.020;25.096;2023-02-23T08:20:59;99404.50;;;16.26
76901;BMP280;65859;43.020;25.096;2023-02-23T08:23:29;99396.34;;;14.68
76901;BMP280;65859;43.020;25.096;2023-02-23T08:25:55;99400.59;;;15.78
76901;BMP280;65859;43.020;25.096;2023-02-23T08:28:23;99402.84;;;16.94
76901;BMP280;65859;43.020;25.096;2023-02-23T08:30:50;99401.75;;;16.23
76901;BMP280;65859;43.020;25.096;2023-02-23T08:33:16;99403.72;;;17.65
76901;BMP280;65859;43.020;25.096;2023-02-23T08:35:42;99404.38;;;19.02
76901;BMP280;65859;43.020;25.096;2023-02-23T08:38:10;99402.88;;;19.08
76901;BMP280;65859;43.020;25.096;2023-02-23T08:40:36;99399.63;;;20.25
76901;BMP280;65859;43.020;25.096;2023-02-23T08:43:03;99414.59;;;21.49
76901;BMP280;65859;43.020;25.096;2023-02-23T08:45:29;99406.38;;;22.52
76901;BMP280;65859;43.020;25.096;2023-02-23T08:47:55;99411.50;;;23.08
76901;BMP280;65859;43.020;25.096;2023-02-23T08:50:22;99404.94;;;23.36
76901;BMP280;65859;43.020;25.096;2023-02-23T08:52:48;99402.25;;;24.65
76901;BMP280;65859;43.020;25.096;2023-02-23T08:55:15;99412.97;;;23.66
76901;BMP280;65859;43.020;25.096;2023-02-23T08:57:43;99414.56;;;24.50
76901;BMP280;65859;43.020;25.096;2023-02-23T09:00:11;99411.22;;;24.22
76901;BMP280;65859;43.020;25.096;2023-02-23T09:02:42;99409.41;;;25.76
76901;BMP280;65859;43.020;25.096;2023-02-23T09:05:09;99404.47;;;25.71
76901;BMP280;65859;43.020;25.096;2023-02-23T09:07:37;99405.66;;;23.86
76901;BMP280;65859;43.020;25.096;2023-02-23T09:10:05;99406.31;;;23.71
76901;BMP280;65859;43.020;25.096;2023-02-23T09:12:31;99401.88;;;23.57
76901;BMP280;65859;43.020;25.096;2023-02-23T09:14:57;99404.06;;;24.12
76901;BMP280;65859;43.020;25.096;2023-02-23T09:17:24;99395.63;;;23.60
76901;BMP280;65859;43.020;25.096;2023-02-23T09:19:51;99396.00;;;23.62
76901;BMP280;65859;43.020;25.096;2023-02-23T09:22:18;99395.75;;;24.00
76901;BMP280;65859;43.020;25.096;2023-02-23T09:24:44;99398.22;;;24.73
76901;BMP280;65859;43.020;25.096;2023-02-23T09:27:11;99402.91;;;27.80
76901;BMP280;65859;43.020;25.096;2023-02-23T09:29:38;99397.03;;;27.35
76901;BMP280;65859;43.020;25.096;2023-02-23T09:32:11;99406.94;;;27.41
76901;BMP280;65859;43.020;25.096;2023-02-23T09:34:37;99402.66;;;28.40
76901;BMP280;65859;43.020;25.096;2023-02-23T09:37:04;99403.22;;;28.57
76901;BMP280;65859;43.020;25.096;2023-02-23T09:39:31;99395.84;;;29.70
76901;BMP280;65859;43.020;25.096;2023-02-23T09:43:06;99396.56;;;28.58
76901;BMP280;65859;43.020;25.096;2023-02-23T09:50:30;99386.13;;;26.33
76901;BMP280;65859;43.020;25.096;2023-02-23T09:53:23;99385.34;;;29.78
76901;BMP280;65859;43.020;25.096;2023-02-23T09:55:53;99385.22;;;29.63
76901;BMP280;65859;43.020;25.096;2023-02-23T09:58:28;99387.50;;;28.39
76901;BMP280;65859;43.020;25.096;2023-02-23T10:01:21;99391.72;;;29.75
76901;BMP280;65859;43.020;25.096;2023-02-23T10:04:10;99369.84;;;29.57
76901;BMP280;65859;43.020;25.096;2023-02-23T10:06:38;99378.81;;;29.39
76901;BMP280;65859;43.020;25.096;2023-02-23T10:09:23;99375.50;;;28.77
76901;BMP280;65859;43.020;25.096;2023-02-23T10:20:26;99370.13;;;29.86
76901;BMP280;65859;43.020;25.096;2023-02-23T10:23:00;99369.06;;;31.83
76901;BMP280;65859;43.020;25.096;2023-02-23T10:25:32;99368.41;;;30.49
76901;BMP280;65859;43.020;25.096;2023-02-23T10:28:02;99357.59;;;32.70
76901;BMP280;65859;43.020;25.096;2023-02-23T10:30:30;99360.72;;;31.48
76901;BMP280;65859;43.020;25.096;2023-02-23T10:35:27;99358.06;;;31.01
76901;BMP280;65859;43.020;25.096;2023-02-23T10:37:55;99358.13;;;30.35
76901;BMP280;65859;43.020;25.096;2023-02-23T10:40:25;99355.88;;;32.02
76901;BMP280;65859;43.020;25.096;2023-02-23T10:42:54;99348.63;;;31.84
76901;BMP280;65859;43.020;25.096;2023-02-23T10:45:24;99345.78;;;32.29
76901;BMP280;65859;43.020;25.096;2023-02-23T10:48:10;99334.06;;;30.39
76901;BMP280;65859;43.020;25.096;2023-02-23T10:50:38;99341.91;;;29.62
76901;BMP280;65859;43.020;25.096;2023-02-23T10:53:13;99329.25;;;32.84
76901;BMP280;65859;43.020;25.096;2023-02-23T10:55:43;99345.91;;;30.93
76901;BMP280;65859;43.020;25.096;2023-02-23T10:58:16;99343.69;;;32.58
76901;BMP280;65859;43.020;25.096;2023-02-23T11:01:10;99340.78;;;32.12
76901;BMP280;65859;43.020;25.096;2023-02-23T11:03:43;99338.59;;;33.69
76901;BMP280;65859;43.020;25.096;2023-02-23T11:06:30;99333.31;;;33.66
76901;BMP280;65859;43.020;25.096;2023-02-23T11:08:57;99338.50;;;33.58
76901;BMP280;65859;43.020;25.096;2023-02-23T11:11:27;99339.06;;;33.11
76901;BMP280;65859;43.020;25.096;2023-02-23T11:13:56;99346.44;;;34.73
76901;BMP280;65859;43.020;25.096;2023-02-23T11:16:30;99337.25;;;35.59
76901;BMP280;65859;43.020;25.096;2023-02-23T11:19:05;99337.97;;;33.86
76901;BMP280;65859;43.020;25.096;2023-02-23T11:21:38;99337.41;;;33.76
76901;BMP280;65859;43.020;25.096;2023-02-23T11:26:36;99322.75;;;32.26
76901;BMP280;65859;43.020;25.096;2023-02-23T11:29:49;99325.41;;;33.22
76901;BMP280;65859;43.020;25.096;2023-02-23T11:31:53;99323.94;;;33.26
76901;BMP280;65859;43.020;25.096;2023-02-23T11:34:32;99324.19;;;33.86
76901;BMP280;65859;43.020;25.096;2023-02-23T11:37:03;99319.25;;;31.46
76901;BMP280;65859;43.020;25.096;2023-02-23T11:39:29;99327.78;;;32.68
76901;BMP280;65859;43.020;25.096;2023-02-23T11:42:26;99319.72;;;32.59
76901;BMP280;65859;43.020;25.096;2023-02-23T11:45:16;99332.72;;;34.36
76901;BMP280;65859;43.020;25.096;2023-02-23T11:48:04;99328.13;;;29.98
76901;BMP280;65859;43.020;25.096;2023-02-23T11:50:34;99329.16;;;30.10
76901;BMP280;65859;43.020;25.096;2023-02-23T11:53:12;99322.88;;;34.18
76901;BMP280;65859;43.020;25.096;2023-02-23T11:55:39;99320.06;;;34.07
76901;BMP280;65859;43.020;25.096;2023-02-23T11:58:53;99322.72;;;31.91
76901;BMP280;65859;43.020;25.096;2023-02-23T12:01:40;99316.72;;;32.42
76901;BMP280;65859;43.020;25.096;2023-02-23T12:09:46;99315.31;;;30.37
76901;BMP280;65859;43.020;25.096;2023-02-23T12:12:17;99313.25;;;29.90
76901;BMP280;65859;43.020;25.096;2023-02-23T12:14:59;99315.13;;;29.66
76901;BMP280;65859;43.020;25.096;2023-02-23T12:17:35;99309.81;;;28.98
76901;BMP280;65859;43.020;25.096;2023-02-23T12:20:29;99306.84;;;26.95
76901;BMP280;65859;43.020;25.096;2023-02-23T12:23:14;99301.59;;;24.00
76901;BMP280;65859;43.020;25.096;2023-02-23T12:26:09;99300.91;;;21.77
76901;BMP280;65859;43.020;25.096;2023-02-23T12:28:39;99300.44;;;20.79
76901;BMP280;65859;43.020;25.096;2023-02-23T12:34:01;99298.41;;;19.81
76901;BMP280;65859;43.020;25.096;2023-02-23T12:39:33;99301.47;;;19.83
76901;BMP280;65859;43.020;25.096;2023-02-23T12:42:25;99294.88;;;19.06
76901;BMP280;65859;43.020;25.096;2023-02-23T12:45:02;99299.91;;;19.32
76901;BMP280;65859;43.020;25.096;2023-02-23T12:47:38;99303.75;;;19.28
76901;BMP280;65859;43.020;25.096;2023-02-23T12:50:38;99297.63;;;19.41
76901;BMP280;65859;43.020;25.096;2023-02-23T13:01:15;99302.53;;;18.90
76901;BMP280;65859;43.020;25.096;2023-02-23T13:03:59;99301.34;;;18.87
76901;BMP280;65859;43.020;25.096;2023-02-23T13:17:26;99321.66;;;18.08
76901;BMP280;65859;43.020;25.096;2023-02-23T13:27:57;99313.13;;;17.99
76901;BMP280;65859;43.020;25.096;2023-02-23T13:30:25;99308.91;;;17.98
76901;BMP280;65859;43.020;25.096;2023-02-23T13:32:53;99314.59;;;17.93
76901;BMP280;65859;43.020;25.096;2023-02-23T13:35:20;99317.19;;;17.79
76901;BMP280;65859;43.020;25.096;2023-02-23T13:38:08;99310.59;;;17.69
76901;BMP280;65859;43.020;25.096;2023-02-23T13:40:57;99313.19;;;17.21
76901;BMP280;65859;43.020;25.096;2023-02-23T13:43:28;99318.81;;;17.13
76901;BMP280;65859;43.020;25.096;2023-02-23T13:48:57;99315.28;;;17.38
76901;BMP280;65859;43.020;25.096;2023-02-23T13:51:36;99312.13;;;17.33
76901;BMP280;65859;43.020;25.096;2023-02-23T13:56:47;99313.69;;;17.34
76901;BMP280;65859;43.020;25.096;2023-02-23T13:59:23;99314.78;;;16.96
76901;BMP280;65859;43.020;25.096;2023-02-23T14:01:52;99324.75;;;16.95
76901;BMP280;65859;43.020;25.096;2023-02-23T14:04:35;99320.88;;;16.93
76901;BMP280;65859;43.020;25.096;2023-02-23T14:09:54;99316.94;;;16.83
76901;BMP280;65859;43.020;25.096;2023-02-23T14:18:02;99323.75;;;16.77
76901;BMP280;65859;43.020;25.096;2023-02-23T14:23:29;99315.31;;;16.48
76901;BMP280;65859;43.020;25.096;2023-02-23T14:26:15;99321.16;;;16.31
76901;BMP280;65859;43.020;25.096;2023-02-23T14:28:47;99313.59;;;16.63
76901;BMP280;65859;43.020;25.096;2023-02-23T14:31:34;99311.59;;;16.30
76901;BMP280;65859;43.020;25.096;2023-02-23T14:34:07;99315.84;;;16.58
76901;BMP280;65859;43.020;25.096;2023-02-23T14:36:36;99315.88;;;16.61
76901;BMP280;65859;43.020;25.096;2023-02-23T14:39:24;99321.38;;;16.19
76901;BMP280;65859;43.020;25.096;2023-02-23T14:41:57;99320.75;;;16.56
76901;BMP280;65859;43.020;25.096;2023-02-23T14:44:36;99320.72;;;16.26
76901;BMP280;65859;43.020;25.096;2023-02-23T14:47:14;99319.41;;;16.16
76901;BMP280;65859;43.020;25.096;2023-02-23T14:50:01;99313.00;;;16.24
76901;BMP280;65859;43.020;25.096;2023-02-23T14:52:35;99319.81;;;16.18
76901;BMP280;65859;43.020;25.096;2023-02-23T14:57:40;99319.84;;;15.95
76901;BMP280;65859;43.020;25.096;2023-02-23T15:00:18;99315.84;;;15.85
76901;BMP280;65859;43.020;25.096;2023-02-23T15:03:02;99320.19;;;15.71
76901;BMP280;65859;43.020;25.096;2023-02-23T15:05:32;99317.84;;;15.69
76901;BMP280;65859;43.020;25.096;2023-02-23T15:08:02;99323.34;;;15.57
76901;BMP280;65859;43.020;25.096;2023-02-23T15:10:36;99315.38;;;15.38
76901;BMP280;65859;43.020;25.096;2023-02-23T15:13:31;99315.31;;;15.34
76901;BMP280;65859;43.020;25.096;2023-02-23T15:16:10;99318.53;;;15.43
76901;BMP280;65859;43.020;25.096;2023-02-23T15:18:42;99321.50;;;15.38
76901;BMP280;65859;43.020;25.096;2023-02-23T15:21:12;99316.72;;;15.28
76901;BMP280;65859;43.020;25.096;2023-02-23T15:23:42;99321.97;;;15.05
76901;BMP280;65859;43.020;25.096;2023-02-23T15:28:44;99321.13;;;14.82
76901;BMP280;65859;43.020;25.096;2023-02-23T15:31:11;99319.59;;;14.84
76901;BMP280;65859;43.020;25.096;2023-02-23T15:33:38;99329.63;;;14.87
76901;BMP280;65859;43.020;25.096;2023-02-23T15:38:52;99326.19;;;14.71
76901;BMP280;65859;43.020;25.096;2023-02-23T15:41:28;99329.91;;;14.66
76901;BMP280;65859;43.020;25.096;2023-02-23T15:44:12;99330.09;;;14.58
76901;BMP280;65859;43.020;25.096;2023-02-23T15:46:41;99328.03;;;14.35
76901;BMP280;65859;43.020;25.096;2023-02-23T15:49:13;99334.94;;;14.36
76901;BMP280;65859;43.020;25.096;2023-02-23T15:51:50;99334.44;;;14.31
76901;BMP280;65859;43.020;25.096;2023-02-23T15:54:22;99339.06;;;14.18
76901;BMP280;65859;43.020;25.096;2023-02-23T15:56:53;99338.19;;;14.30
76901;BMP280;65859;43.020;25.096;2023-02-23T15:59:33;99343.63;;;14.02
76901;BMP280;65859;43.020;25.096;2023-02-23T16:02:01;99349.50;;;14.23
76901;BMP280;65859;43.020;25.096;2023-02-23T16:04:39;99346.66;;;14.32
76901;BMP280;65859;43.020;25.096;2023-02-23T16:07:26;99348.91;;;14.45
76901;BMP280;65859;43.020;25.096;2023-02-23T16:12:50;99349.19;;;13.97
76901;BMP280;65859;43.020;25.096;2023-02-23T16:15:26;99357.28;;;14.00
76901;BMP280;65859;43.020;25.096;2023-02-23T16:18:08;99354.84;;;14.23
76901;BMP280;65859;43.020;25.096;2023-02-23T16:26:04;99367.97;;;14.00
76901;BMP280;65859;43.020;25.096;2023-02-23T16:28:33;99372.88;;;13.98
76901;BMP280;65859;43.020;25.096;2023-02-23T16:31:03;99369.34;;;13.94
76901;BMP280;65859;43.020;25.096;2023-02-23T16:36:19;99375.25;;;13.72
76901;BMP280;65859;43.020;25.096;2023-02-23T16:38:56;99376.00;;;13.72
76901;BMP280;65859;43.020;25.096;2023-02-23T16:41:25;99372.03;;;13.26
76901;BMP280;65859;43.020;25.096;2023-02-23T16:43:53;99377.78;;;13.68
76901;BMP280;65859;43.020;25.096;2023-02-23T16:46:22;99380.88;;;13.30